createdAt,value
2018-12-21T00:00:29.667Z,0.00
2018-12-21T00:01:29.654Z,0.00
2018-12-21T00:02:29.627Z,0.00
2018-12-21T00:03:29.616Z,0.00
2018-12-21T00:04:29.604Z,0.00
2018-12-21T00:05:29.605Z,0.00
2018-12-21T00:06:29.621Z,0.00
2018-12-21T00:07:29.590Z,0.00
2018-12-21T00:08:29.613Z,0.00
2018-12-21T00:09:29.587Z,0.00
2018-12-21T00:10:29.580Z,0.00
2018-12-21T00:11:29.586Z,0.00
2018-12-21T00:12:29.584Z,0.00
2018-12-21T00:13:29.552Z,0.00
2018-12-21T00:14:29.565Z,0.00
2018-12-21T00:15:29.586Z,0.00
2018-12-21T00:16:29.529Z,0.00
2018-12-21T00:17:34.473Z,0.00
2018-12-21T00:18:29.507Z,0.00
2018-12-21T00:19:29.486Z,0.00
2018-12-21T00:20:29.497Z,0.00
2018-12-21T00:21:29.478Z,0.00
2018-12-21T00:22:29.463Z,0.00
2018-12-21T00:23:29.496Z,0.00
2018-12-21T00:24:29.457Z,0.00
2018-12-21T00:25:29.492Z,0.00
2018-12-21T00:26:29.456Z,0.00
2018-12-21T00:27:29.438Z,0.00
2018-12-21T00:28:29.447Z,0.00
2018-12-21T00:29:29.473Z,0.00
2018-12-21T00:30:29.425Z,0.00
2018-12-21T00:31:29.436Z,0.00
2018-12-21T00:32:29.399Z,0.00
2018-12-21T00:33:29.424Z,0.00
2018-12-21T00:34:29.401Z,0.00
2018-12-21T00:35:29.396Z,0.00
2018-12-21T00:36:29.373Z,0.00
2018-12-21T00:37:29.354Z,0.00
2018-12-21T00:38:29.377Z,0.00
2018-12-21T00:39:29.352Z,0.00
2018-12-21T00:40:29.329Z,0.00
2018-12-21T00:41:29.329Z,0.00
2018-12-21T00:42:29.380Z,0.00
2018-12-21T00:43:29.338Z,0.00
2018-12-21T00:44:29.302Z,0.00
2018-12-21T00:45:29.305Z,0.00
2018-12-21T00:46:29.325Z,0.00
2018-12-21T00:47:29.414Z,0.00
2018-12-21T00:48:29.277Z,0.00
2018-12-21T00:49:29.338Z,0.00
2018-12-21T00:50:29.265Z,0.00
2018-12-21T00:51:30.302Z,0.00
2018-12-21T00:52:29.264Z,0.00
2018-12-21T00:53:29.258Z,0.00
2018-12-21T00:54:29.278Z,0.00
2018-12-21T00:55:29.261Z,0.00
2018-12-21T00:56:29.211Z,0.00
2018-12-21T00:57:29.272Z,0.00
2018-12-21T00:58:29.216Z,0.00
2018-12-21T00:59:29.228Z,0.00
2018-12-21T01:00:29.203Z,0.00
2018-12-21T01:01:29.219Z,0.00
2018-12-21T01:02:29.190Z,0.00
2018-12-21T01:03:29.219Z,0.00
2018-12-21T01:04:29.177Z,0.00
2018-12-21T01:05:29.196Z,0.00
2018-12-21T01:06:29.189Z,0.00
2018-12-21T01:07:29.202Z,0.00
2018-12-21T01:08:37.904Z,0.00
2018-12-21T01:10:34.727Z,0.00
2018-12-21T01:11:34.655Z,0.00
2018-12-21T01:12:34.668Z,0.00
2018-12-21T01:13:34.839Z,0.00
2018-12-21T01:14:34.606Z,0.00
2018-12-21T01:15:34.581Z,0.00
2018-12-21T01:16:34.573Z,0.00
2018-12-21T01:17:34.604Z,0.00
2018-12-21T01:18:34.565Z,0.00
2018-12-21T01:19:34.577Z,0.00
2018-12-21T01:20:34.602Z,0.00
2018-12-21T01:21:38.660Z,0.00
2018-12-21T01:22:34.610Z,0.00
2018-12-21T01:23:34.535Z,0.00
2018-12-21T01:24:34.532Z,0.00
2018-12-21T01:25:34.537Z,0.00
2018-12-21T01:26:34.530Z,0.00
2018-12-21T01:27:34.496Z,0.00
2018-12-21T01:28:34.502Z,0.00
2018-12-21T01:29:34.513Z,0.00
2018-12-21T01:30:34.518Z,0.00
2018-12-21T01:31:34.492Z,0.00
2018-12-21T01:32:34.484Z,0.00
2018-12-21T01:33:34.480Z,0.00
2018-12-21T01:34:34.474Z,0.00
2018-12-21T01:35:34.439Z,0.00
2018-12-21T01:36:34.428Z,0.00
2018-12-21T01:37:34.423Z,0.00
2018-12-21T01:38:34.487Z,0.00
2018-12-21T01:39:34.427Z,0.00
2018-12-21T01:40:34.405Z,0.00
2018-12-21T01:41:34.414Z,0.00
2018-12-21T01:42:34.382Z,0.00
2018-12-21T01:43:34.409Z,0.00
2018-12-21T01:44:34.375Z,0.00
2018-12-21T01:45:34.382Z,0.00
2018-12-21T01:46:34.375Z,0.00
2018-12-21T01:47:34.396Z,0.00
2018-12-21T01:48:34.349Z,0.00
2018-12-21T01:49:34.381Z,0.00
2018-12-21T01:50:34.337Z,0.00
2018-12-21T01:51:34.325Z,0.00
2018-12-21T01:52:34.324Z,0.00
2018-12-21T01:53:34.308Z,0.00
2018-12-21T01:54:34.316Z,0.00
2018-12-21T01:55:34.316Z,0.00
2018-12-21T01:56:34.319Z,0.00
2018-12-21T01:59:14.805Z,0.00
2018-12-21T02:00:24.350Z,0.00
2018-12-21T02:02:19.257Z,0.00
2018-12-21T02:03:19.166Z,0.00
2018-12-21T02:04:19.173Z,0.00
2018-12-21T02:05:19.158Z,0.00
2018-12-21T02:06:19.160Z,0.00
2018-12-21T02:07:19.144Z,0.00
2018-12-21T02:08:19.245Z,0.00
2018-12-21T02:09:19.109Z,0.00
2018-12-21T02:10:19.127Z,0.00
2018-12-21T02:11:19.096Z,0.00
2018-12-21T02:12:19.091Z,0.00
2018-12-21T02:13:19.098Z,0.00
2018-12-21T02:14:19.102Z,0.00
2018-12-21T02:15:19.062Z,0.00
2018-12-21T02:16:19.061Z,0.00
2018-12-21T02:17:19.069Z,0.00
2018-12-21T02:18:19.076Z,0.00
2018-12-21T02:19:19.072Z,0.00
2018-12-21T02:20:19.036Z,0.00
2018-12-21T02:21:19.062Z,0.00
2018-12-21T02:22:19.025Z,0.00
2018-12-21T02:23:19.068Z,0.00
2018-12-21T02:24:19.004Z,0.00
2018-12-21T02:25:19.001Z,0.00
2018-12-21T02:26:18.985Z,0.00
2018-12-21T02:27:18.997Z,0.00
2018-12-21T02:28:19.057Z,0.00
2018-12-21T02:29:18.982Z,0.00
2018-12-21T02:30:19.003Z,0.00
2018-12-21T02:31:18.965Z,0.00
2018-12-21T02:32:19.026Z,0.00
2018-12-21T02:33:18.941Z,0.00
2018-12-21T02:34:18.953Z,0.00
2018-12-21T02:35:18.944Z,0.00
2018-12-21T02:36:18.942Z,0.00
2018-12-21T02:37:18.907Z,0.00
2018-12-21T02:38:18.900Z,0.00
2018-12-21T02:39:18.920Z,0.00
2018-12-21T02:40:18.924Z,0.00
2018-12-21T02:41:18.937Z,0.00
2018-12-21T02:42:18.889Z,0.00
2018-12-21T02:43:18.887Z,0.00
2018-12-21T02:44:18.926Z,0.00
2018-12-21T02:45:18.895Z,0.00
2018-12-21T02:46:18.871Z,0.00
2018-12-21T02:47:18.929Z,0.00
2018-12-21T02:48:18.851Z,0.00
2018-12-21T02:49:18.858Z,0.00
2018-12-21T02:50:18.859Z,0.00
2018-12-21T02:51:18.816Z,0.00
2018-12-21T02:52:18.802Z,0.00
2018-12-21T02:53:18.823Z,0.00
2018-12-21T02:54:18.791Z,0.00
2018-12-21T02:55:18.812Z,0.00
2018-12-21T02:56:18.796Z,0.00
2018-12-21T03:14:09.938Z,0.00
2018-12-21T03:15:09.940Z,0.00
2018-12-21T03:16:09.954Z,0.00
2018-12-21T03:17:09.892Z,0.00
2018-12-21T03:18:09.854Z,0.00
2018-12-21T03:19:09.883Z,0.00
2018-12-21T03:20:09.850Z,0.00
2018-12-21T03:21:09.879Z,0.00
2018-12-21T03:22:14.550Z,0.00
2018-12-21T03:23:09.863Z,0.00
2018-12-21T03:24:09.805Z,0.00
2018-12-21T03:25:09.807Z,0.00
2018-12-21T03:26:09.794Z,0.00
2018-12-21T03:27:09.772Z,0.00
2018-12-21T03:28:09.799Z,0.00
2018-12-21T03:29:09.756Z,0.00
2018-12-21T03:30:09.796Z,0.00
2018-12-21T03:31:09.762Z,0.00
2018-12-21T03:32:09.746Z,0.00
2018-12-21T03:33:09.726Z,0.00
2018-12-21T03:34:09.731Z,0.00
2018-12-21T03:35:09.717Z,0.00
2018-12-21T03:36:09.712Z,0.00
2018-12-21T03:37:09.720Z,0.00
2018-12-21T03:38:09.727Z,0.00
2018-12-21T03:39:09.699Z,0.00
2018-12-21T03:40:09.668Z,0.00
2018-12-21T03:41:09.682Z,0.00
2018-12-21T03:42:09.666Z,0.00
2018-12-21T03:43:09.691Z,0.00
2018-12-21T03:44:09.674Z,0.00
2018-12-21T03:45:09.646Z,0.00
2018-12-21T03:46:09.657Z,0.00
2018-12-21T03:47:09.638Z,0.00
2018-12-21T03:48:09.635Z,0.00
2018-12-21T03:49:09.656Z,0.00
2018-12-21T03:50:09.638Z,0.00
2018-12-21T03:51:09.629Z,0.00
2018-12-21T03:52:09.596Z,0.00
2018-12-21T03:53:09.621Z,0.00
2018-12-21T03:54:09.580Z,0.00
2018-12-21T03:55:09.588Z,0.00
2018-12-21T03:56:09.602Z,0.00
2018-12-21T03:57:09.588Z,0.00
2018-12-21T03:58:09.559Z,0.00
2018-12-21T03:59:09.542Z,0.00
2018-12-21T04:00:09.528Z,0.00
2018-12-21T04:01:09.592Z,0.00
2018-12-21T04:02:09.520Z,0.00
2018-12-21T04:03:09.510Z,0.00
2018-12-21T04:04:09.586Z,0.00
2018-12-21T04:05:09.490Z,0.00
2018-12-21T04:06:09.493Z,0.00
2018-12-21T04:07:09.509Z,0.00
2018-12-21T04:08:09.480Z,0.00
2018-12-21T04:09:09.469Z,0.00
2018-12-21T04:10:09.529Z,0.00
2018-12-21T04:11:09.492Z,0.00
2018-12-21T04:12:09.449Z,0.00
2018-12-21T04:13:09.449Z,0.00
2018-12-21T04:14:09.455Z,0.00
2018-12-21T04:15:09.417Z,0.00
2018-12-21T04:16:09.423Z,0.00
2018-12-21T04:17:09.518Z,0.00
2018-12-21T04:18:09.411Z,0.00
2018-12-21T04:19:09.429Z,0.00
2018-12-21T04:20:09.412Z,0.00
2018-12-21T04:21:09.403Z,0.00
2018-12-21T04:22:09.373Z,0.00
2018-12-21T04:23:09.407Z,0.00
2018-12-21T04:24:09.398Z,0.00
2018-12-21T04:25:09.407Z,0.00
2018-12-21T04:26:09.349Z,0.00
2018-12-21T04:27:09.345Z,0.00
2018-12-21T04:28:09.380Z,0.00
2018-12-21T04:29:09.350Z,0.00
2018-12-21T04:30:09.362Z,0.00
2018-12-21T04:31:09.311Z,0.00
2018-12-21T04:32:09.300Z,0.00
2018-12-21T04:33:09.294Z,0.00
2018-12-21T04:34:09.343Z,0.00
2018-12-21T04:35:09.305Z,0.00
2018-12-21T04:36:09.305Z,0.00
2018-12-21T04:37:09.286Z,0.00
2018-12-21T04:38:09.259Z,0.00
2018-12-21T04:39:09.255Z,0.00
2018-12-21T04:40:09.255Z,0.00
2018-12-21T04:41:09.247Z,0.00
2018-12-21T04:42:09.294Z,0.00
2018-12-21T04:43:09.254Z,0.00
2018-12-21T04:44:09.224Z,0.00
2018-12-21T04:45:09.268Z,0.00
2018-12-21T04:46:09.234Z,0.00
2018-12-21T04:47:09.223Z,0.00
2018-12-21T04:48:09.218Z,0.00
2018-12-21T04:49:09.204Z,0.00
2018-12-21T04:50:09.186Z,0.00
2018-12-21T04:51:09.166Z,0.00
2018-12-21T04:52:09.176Z,0.00
2018-12-21T04:53:09.207Z,0.00
2018-12-21T04:54:09.185Z,0.00
2018-12-21T04:55:09.144Z,0.00
2018-12-21T04:56:09.174Z,0.00
2018-12-21T04:57:09.183Z,0.00
2018-12-21T04:58:09.182Z,0.00
2018-12-21T04:59:09.770Z,0.00
2018-12-21T05:00:09.154Z,0.00
2018-12-21T05:01:18.017Z,0.00
2018-12-21T05:03:13.761Z,0.00
2018-12-21T05:04:19.678Z,0.00
2018-12-21T05:05:13.579Z,0.00
2018-12-21T05:06:13.606Z,0.00
2018-12-21T05:07:13.724Z,0.00
2018-12-21T05:08:13.563Z,0.00
2018-12-21T05:09:13.535Z,0.00
2018-12-21T05:10:13.533Z,0.00
2018-12-21T05:11:13.592Z,0.00
2018-12-21T05:12:13.518Z,0.00
2018-12-21T05:13:13.511Z,0.00
2018-12-21T05:14:13.508Z,0.00
2018-12-21T05:15:13.525Z,0.00
2018-12-21T05:16:13.490Z,0.00
2018-12-21T05:17:13.545Z,0.00
2018-12-21T05:18:13.498Z,0.00
2018-12-21T05:19:13.506Z,0.00
2018-12-21T05:20:13.490Z,0.00
2018-12-21T05:21:13.465Z,0.00
2018-12-21T05:22:13.468Z,0.00
2018-12-21T05:23:13.463Z,0.00
2018-12-21T05:24:13.487Z,0.00
2018-12-21T05:25:13.433Z,0.00
2018-12-21T05:26:13.427Z,0.00
2018-12-21T05:27:13.450Z,0.00
2018-12-21T05:28:13.406Z,0.00
2018-12-21T05:29:13.428Z,0.00
2018-12-21T05:30:13.441Z,0.00
2018-12-21T05:31:13.413Z,0.00
2018-12-21T05:32:13.388Z,0.00
2018-12-21T05:33:13.472Z,0.00
2018-12-21T05:34:13.362Z,0.00
2018-12-21T05:35:13.398Z,0.00
2018-12-21T05:36:13.380Z,0.00
2018-12-21T05:37:13.350Z,0.00
2018-12-21T05:38:13.338Z,0.00
2018-12-21T05:39:13.356Z,0.00
2018-12-21T05:40:13.343Z,0.00
2018-12-21T05:41:13.344Z,0.00
2018-12-21T05:42:13.368Z,0.00
2018-12-21T05:43:13.303Z,0.00
2018-12-21T05:44:13.311Z,0.00
2018-12-21T05:45:13.299Z,0.00
2018-12-21T05:46:13.377Z,0.00
2018-12-21T05:47:13.329Z,0.00
2018-12-21T05:48:13.274Z,0.00
2018-12-21T05:49:13.293Z,0.00
2018-12-21T05:50:13.281Z,0.00
2018-12-21T05:51:13.269Z,0.00
2018-12-21T05:52:13.249Z,0.00
2018-12-21T05:53:13.239Z,0.00
2018-12-21T05:54:13.241Z,0.00
2018-12-21T05:55:13.237Z,0.00
2018-12-21T05:56:13.239Z,0.00
2018-12-21T05:57:13.242Z,0.00
2018-12-21T05:58:13.214Z,0.00
2018-12-21T05:59:13.241Z,0.00
2018-12-21T06:00:13.225Z,0.00
2018-12-21T06:01:13.190Z,0.00
2018-12-21T06:02:13.236Z,0.00
2018-12-21T06:03:13.191Z,0.00
2018-12-21T06:04:13.289Z,0.00
2018-12-21T06:05:13.153Z,0.00
2018-12-21T06:06:13.151Z,0.00
2018-12-21T06:07:13.160Z,0.00
2018-12-21T06:08:13.134Z,0.00
2018-12-21T06:09:13.148Z,0.00
2018-12-21T06:10:13.144Z,0.00
2018-12-21T06:11:13.121Z,0.00
2018-12-21T06:12:13.127Z,0.00
2018-12-21T06:13:13.231Z,0.00
2018-12-21T06:14:13.110Z,0.00
2018-12-21T06:15:13.082Z,0.00
2018-12-21T06:16:13.086Z,0.00
2018-12-21T06:17:13.079Z,0.00
2018-12-21T06:18:13.076Z,0.00
2018-12-21T06:19:13.068Z,0.00
2018-12-21T06:20:21.821Z,0.00
2018-12-21T06:22:17.572Z,0.00
2018-12-21T06:23:17.522Z,0.00
2018-12-21T06:24:17.518Z,0.00
2018-12-21T06:25:17.637Z,0.00
2018-12-21T06:26:17.494Z,0.00
2018-12-21T06:27:17.482Z,0.00
2018-12-21T06:28:17.480Z,0.00
2018-12-21T06:29:17.477Z,0.00
2018-12-21T06:30:17.500Z,0.00
2018-12-21T06:31:18.771Z,0.00
2018-12-21T06:32:17.706Z,0.00
2018-12-21T06:33:17.794Z,0.00
2018-12-21T06:34:17.673Z,0.00
2018-12-21T06:35:17.470Z,0.00
2018-12-21T06:36:17.417Z,0.00
2018-12-21T06:37:17.406Z,0.00
2018-12-21T06:38:17.449Z,0.00
2018-12-21T06:39:17.425Z,0.00
2018-12-21T06:40:17.422Z,0.00
2018-12-21T06:41:17.446Z,0.00
2018-12-21T06:42:17.408Z,0.00
2018-12-21T06:43:17.383Z,0.00
2018-12-21T06:44:17.411Z,0.00
2018-12-21T06:45:17.365Z,0.00
2018-12-21T06:46:27.462Z,0.00
2018-12-21T06:48:21.875Z,0.00
2018-12-21T06:49:21.847Z,0.00
2018-12-21T06:50:21.841Z,0.00
2018-12-21T06:51:21.835Z,0.00
2018-12-21T06:52:21.837Z,0.00
2018-12-21T06:53:21.923Z,0.00
2018-12-21T06:54:21.793Z,0.00
2018-12-21T06:55:21.833Z,0.00
2018-12-21T06:56:21.798Z,0.00
2018-12-21T06:57:29.526Z,0.00
2018-12-21T06:59:35.368Z,0.00
2018-12-21T07:00:35.064Z,0.00
2018-12-21T07:02:30.751Z,0.00
2018-12-21T07:03:30.707Z,0.00
2018-12-21T07:04:30.701Z,0.00
2018-12-21T07:05:30.713Z,0.00
2018-12-21T07:06:30.721Z,0.00
2018-12-21T07:07:30.724Z,0.00
2018-12-21T07:08:30.880Z,0.00
2018-12-21T07:09:30.666Z,0.00
2018-12-21T07:10:30.657Z,0.00
2018-12-21T07:11:30.651Z,0.00
2018-12-21T07:12:30.654Z,0.00
2018-12-21T07:13:30.672Z,4.00
2018-12-21T07:14:30.639Z,4.00
2018-12-21T07:15:30.652Z,4.00
2018-12-21T07:16:30.640Z,4.00
2018-12-21T07:17:30.630Z,4.00
2018-12-21T07:18:30.662Z,4.00
2018-12-21T07:19:30.609Z,4.00
2018-12-21T07:20:30.610Z,4.00
2018-12-21T07:21:30.590Z,4.00
2018-12-21T07:22:30.619Z,4.00
2018-12-21T07:23:30.618Z,4.00
2018-12-21T07:24:30.585Z,4.00
2018-12-21T07:25:30.552Z,8.00
2018-12-21T07:26:30.543Z,8.00
2018-12-21T07:27:30.547Z,8.00
2018-12-21T07:28:30.551Z,12.00
2018-12-21T07:29:30.530Z,8.00
2018-12-21T07:30:30.531Z,12.00
2018-12-21T07:31:30.508Z,12.00
2018-12-21T07:32:30.499Z,16.00
2018-12-21T07:33:30.496Z,16.00
2018-12-21T07:34:30.494Z,16.00
2018-12-21T07:35:30.506Z,20.00
2018-12-21T07:36:30.520Z,16.00
2018-12-21T07:37:30.476Z,16.00
2018-12-21T07:38:30.507Z,20.00
2018-12-21T07:39:32.345Z,20.00
2018-12-21T07:40:30.458Z,20.00
2018-12-21T07:41:30.457Z,24.00
2018-12-21T07:42:30.449Z,24.00
2018-12-21T07:43:30.427Z,28.00
2018-12-21T07:44:30.455Z,28.00
2018-12-21T07:45:30.413Z,28.00
2018-12-21T07:46:30.425Z,36.00
2018-12-21T07:47:32.173Z,40.00
2018-12-21T07:48:30.414Z,40.00
2018-12-21T07:49:30.407Z,44.00
2018-12-21T07:50:30.401Z,48.00
2018-12-21T07:51:30.366Z,52.00
2018-12-21T07:52:30.362Z,52.00
2018-12-21T07:53:35.767Z,52.00
2018-12-21T07:54:30.344Z,52.00
2018-12-21T07:55:30.340Z,52.00
2018-12-21T07:56:30.364Z,52.00
2018-12-21T07:57:30.332Z,56.00
2018-12-21T07:58:30.322Z,56.00
2018-12-21T07:59:30.321Z,64.00
2018-12-21T08:00:30.325Z,64.00
2018-12-21T08:01:30.301Z,56.00
2018-12-21T08:02:30.286Z,56.00
2018-12-21T08:03:30.316Z,56.00
2018-12-21T08:04:30.408Z,56.00
2018-12-21T08:05:30.282Z,52.00
2018-12-21T08:06:30.280Z,52.00
2018-12-21T08:07:30.253Z,52.00
2018-12-21T08:08:30.269Z,56.00
2018-12-21T08:09:30.254Z,56.00
2018-12-21T08:10:30.238Z,60.00
2018-12-21T08:11:30.242Z,60.00
2018-12-21T08:12:30.215Z,56.00
2018-12-21T08:13:30.223Z,56.00
2018-12-21T08:14:30.217Z,56.00
2018-12-21T08:15:30.200Z,60.00
2018-12-21T08:16:30.192Z,64.00
2018-12-21T08:17:30.184Z,72.00
2018-12-21T08:18:30.207Z,76.00
2018-12-21T08:19:32.088Z,76.00
2018-12-21T08:20:30.218Z,84.00
2018-12-21T08:21:30.175Z,80.00
2018-12-21T08:22:30.215Z,84.00
2018-12-21T08:23:30.169Z,96.00
2018-12-21T08:24:30.145Z,104.00
2018-12-21T08:25:30.128Z,108.00
2018-12-21T08:26:30.140Z,96.00
2018-12-21T08:27:30.123Z,96.00
2018-12-21T08:28:30.126Z,92.00
2018-12-21T08:29:30.148Z,80.00
2018-12-21T08:30:30.180Z,84.00
2018-12-21T08:31:30.123Z,80.00
2018-12-21T08:32:30.160Z,76.00
2018-12-21T08:33:30.076Z,80.00
2018-12-21T08:34:30.075Z,80.00
2018-12-21T08:35:30.062Z,80.00
2018-12-21T08:36:30.063Z,92.00
2018-12-21T08:37:30.051Z,96.00
2018-12-21T08:38:30.056Z,104.00
2018-12-21T08:39:30.047Z,108.00
2018-12-21T08:40:30.075Z,112.00
2018-12-21T08:41:30.037Z,116.00
2018-12-21T08:42:30.006Z,124.00
2018-12-21T08:43:30.014Z,136.00
2018-12-21T08:44:29.990Z,144.00
2018-12-21T08:45:30.004Z,156.00
2018-12-21T08:46:29.979Z,160.00
2018-12-21T08:47:29.995Z,176.00
2018-12-21T08:48:29.990Z,176.00
2018-12-21T08:49:30.002Z,196.00
2018-12-21T08:50:29.966Z,196.00
2018-12-21T08:51:29.959Z,192.00
2018-12-21T08:52:29.964Z,200.00
2018-12-21T08:53:29.935Z,208.00
2018-12-21T08:54:29.960Z,200.00
2018-12-21T08:55:29.930Z,212.00
2018-12-21T08:56:38.591Z,208.00
2018-12-21T08:58:35.423Z,224.00
2018-12-21T08:59:35.434Z,212.00
2018-12-21T09:00:35.421Z,212.00
2018-12-21T09:01:35.537Z,232.00
2018-12-21T09:02:35.521Z,244.00
2018-12-21T09:03:35.461Z,240.00
2018-12-21T09:04:35.417Z,256.00
2018-12-21T09:05:35.362Z,232.00
2018-12-21T09:06:35.363Z,244.00
2018-12-21T09:07:37.145Z,248.00
2018-12-21T09:08:35.331Z,240.00
2018-12-21T09:09:35.348Z,252.00
2018-12-21T09:10:35.339Z,244.00
2018-12-21T09:11:35.359Z,232.00
2018-12-21T09:12:35.312Z,232.00
2018-12-21T09:13:35.339Z,236.00
2018-12-21T09:14:35.282Z,220.00
2018-12-21T09:15:35.276Z,220.00
2018-12-21T09:16:35.272Z,228.00
2018-12-21T09:17:35.296Z,252.00
2018-12-21T09:18:35.255Z,248.00
2018-12-21T09:19:35.312Z,264.00
2018-12-21T09:20:35.244Z,280.00
2018-12-21T09:21:35.258Z,292.00
2018-12-21T09:22:35.274Z,304.00
2018-12-21T09:23:35.221Z,316.00
2018-12-21T09:24:35.238Z,312.00
2018-12-21T09:25:35.208Z,316.00
2018-12-21T09:26:35.202Z,308.00
2018-12-21T09:27:35.207Z,292.00
2018-12-21T09:28:35.180Z,280.00
2018-12-21T09:29:35.182Z,276.00
2018-12-21T09:30:35.190Z,256.00
2018-12-21T09:31:35.274Z,252.00
2018-12-21T09:32:35.214Z,260.00
2018-12-21T09:33:35.176Z,272.00
2018-12-21T09:34:35.159Z,288.00
2018-12-21T09:35:35.144Z,284.00
2018-12-21T09:36:35.129Z,308.00
2018-12-21T09:37:35.128Z,284.00
2018-12-21T09:38:35.125Z,284.00
2018-12-21T09:39:35.143Z,284.00
2018-12-21T09:40:35.120Z,300.00
2018-12-21T09:41:35.099Z,308.00
2018-12-21T09:42:35.102Z,296.00
2018-12-21T09:43:35.116Z,272.00
2018-12-21T09:44:35.078Z,252.00
2018-12-21T09:45:35.075Z,280.00
2018-12-21T09:46:35.095Z,284.00
2018-12-21T09:47:35.068Z,304.00
2018-12-21T09:48:35.078Z,340.00
2018-12-21T09:49:35.046Z,304.00
2018-12-21T09:50:35.062Z,328.00
2018-12-21T09:51:35.033Z,328.00
2018-12-21T09:52:35.061Z,344.00
2018-12-21T09:53:35.059Z,360.00
2018-12-21T09:54:35.016Z,380.00
2018-12-21T09:55:35.054Z,384.00
2018-12-21T09:56:34.997Z,408.00
2018-12-21T09:57:35.005Z,352.00
2018-12-21T09:58:35.019Z,348.00
2018-12-21T09:59:34.984Z,360.00
2018-12-21T10:00:35.030Z,388.00
2018-12-21T10:01:34.972Z,432.00
2018-12-21T10:02:35.904Z,460.00
2018-12-21T10:03:34.959Z,464.00
2018-12-21T10:04:34.963Z,492.00
2018-12-21T10:05:34.984Z,528.00
2018-12-21T10:06:34.951Z,464.00
2018-12-21T10:07:34.975Z,496.00
2018-12-21T10:08:34.925Z,452.00
2018-12-21T10:09:34.921Z,500.00
2018-12-21T10:10:34.916Z,500.00
2018-12-21T10:11:34.931Z,484.00
2018-12-21T10:12:34.937Z,436.00
2018-12-21T10:13:34.920Z,448.00
2018-12-21T10:14:34.914Z,432.00
2018-12-21T10:15:34.885Z,492.00
2018-12-21T10:16:34.870Z,444.00
2018-12-21T10:17:34.862Z,464.00
2018-12-21T10:18:34.895Z,476.00
2018-12-21T10:19:34.861Z,468.00
2018-12-21T10:20:34.868Z,464.00
2018-12-21T10:21:34.897Z,472.00
2018-12-21T10:22:34.831Z,404.00
2018-12-21T10:23:34.855Z,428.00
2018-12-21T10:24:34.864Z,436.00
2018-12-21T10:25:34.814Z,424.00
2018-12-21T10:26:34.873Z,444.00
2018-12-21T10:27:34.826Z,456.00
2018-12-21T10:28:34.819Z,460.00
2018-12-21T10:29:34.789Z,460.00
2018-12-21T10:30:34.844Z,440.00
2018-12-21T10:31:34.849Z,472.00
2018-12-21T10:32:34.816Z,448.00
2018-12-21T10:33:34.764Z,440.00
2018-12-21T10:34:34.810Z,396.00
2018-12-21T10:35:34.793Z,364.00
2018-12-21T10:36:34.763Z,344.00
2018-12-21T10:37:34.777Z,332.00
2018-12-21T10:38:34.756Z,344.00
2018-12-21T10:39:34.765Z,368.00
2018-12-21T10:40:43.410Z,384.00
2018-12-21T10:42:39.252Z,480.00
2018-12-21T10:43:39.205Z,592.00
2018-12-21T10:45:44.784Z,716.00
2018-12-21T10:46:44.757Z,684.00
2018-12-21T10:47:44.819Z,620.00
2018-12-21T10:48:44.691Z,600.00
2018-12-21T10:49:44.739Z,628.00
2018-12-21T10:50:44.666Z,504.00
2018-12-21T10:53:16.879Z,436.00
2018-12-21T10:54:26.983Z,400.00
2018-12-21T10:56:21.260Z,396.00
2018-12-21T10:57:30.895Z,452.00
2018-12-21T10:59:25.760Z,512.00
2018-12-21T11:00:25.689Z,536.00
2018-12-21T11:01:25.697Z,552.00
2018-12-21T11:02:25.707Z,492.00
2018-12-21T11:03:34.471Z,492.00
2018-12-21T11:05:30.213Z,428.00
2018-12-21T11:06:30.162Z,368.00
2018-12-21T11:07:30.136Z,416.00
2018-12-21T11:08:30.136Z,440.00
2018-12-21T11:09:30.140Z,396.00
2018-12-21T11:10:30.103Z,444.00
2018-12-21T11:11:30.108Z,472.00
2018-12-21T11:12:30.092Z,416.00
2018-12-21T11:13:30.110Z,412.00
2018-12-21T11:14:30.091Z,396.00
2018-12-21T11:15:30.104Z,408.00
2018-12-21T11:16:30.095Z,404.00
2018-12-21T11:17:30.106Z,440.00
2018-12-21T11:18:30.048Z,448.00
2018-12-21T11:19:30.136Z,448.00
2018-12-21T11:20:30.062Z,492.00
2018-12-21T11:21:30.054Z,460.00
2018-12-21T11:22:30.031Z,488.00
2018-12-21T11:23:38.692Z,448.00
2018-12-21T11:25:42.196Z,416.00
2018-12-21T11:26:43.163Z,384.00
2018-12-21T11:28:38.982Z,352.00
2018-12-21T11:29:38.972Z,320.00
2018-12-21T11:30:38.956Z,360.00
2018-12-21T11:31:38.951Z,300.00
2018-12-21T11:32:47.583Z,308.00
2018-12-21T11:34:54.958Z,344.00
2018-12-21T11:35:54.674Z,388.00
2018-12-21T11:36:54.695Z,368.00
2018-12-21T11:37:54.660Z,328.00
2018-12-21T11:38:54.687Z,368.00
2018-12-21T11:39:54.682Z,364.00
2018-12-21T11:40:54.660Z,376.00
2018-12-21T11:41:54.638Z,380.00
2018-12-21T11:42:54.668Z,368.00
2018-12-21T11:43:54.627Z,356.00
2018-12-21T11:44:54.621Z,364.00
2018-12-21T11:45:54.626Z,360.00
2018-12-21T11:46:54.617Z,352.00
2018-12-21T11:47:54.596Z,348.00
2018-12-21T11:48:54.592Z,360.00
2018-12-21T11:49:54.597Z,348.00
2018-12-21T11:50:54.694Z,332.00
2018-12-21T11:51:54.575Z,328.00
2018-12-21T11:52:54.576Z,332.00
2018-12-21T11:53:54.589Z,332.00
2018-12-21T11:54:54.590Z,400.00
2018-12-21T11:55:54.574Z,360.00
2018-12-21T11:56:54.544Z,356.00
2018-12-21T11:57:54.534Z,352.00
2018-12-21T11:58:54.548Z,384.00
2018-12-21T11:59:54.530Z,360.00
2018-12-21T12:00:54.559Z,368.00
2018-12-21T12:01:54.578Z,376.00
2018-12-21T12:02:54.503Z,348.00
2018-12-21T12:03:54.530Z,364.00
2018-12-21T12:04:54.512Z,400.00
2018-12-21T12:05:54.488Z,388.00
2018-12-21T12:06:54.478Z,424.00
2018-12-21T12:07:54.494Z,436.00
2018-12-21T12:08:54.484Z,388.00
2018-12-21T12:09:54.471Z,412.00
2018-12-21T12:10:54.571Z,400.00
2018-12-21T12:11:54.496Z,392.00
2018-12-21T12:12:54.461Z,396.00
2018-12-21T12:13:54.476Z,428.00
2018-12-21T12:14:54.454Z,404.00
2018-12-21T12:15:54.423Z,408.00
2018-12-21T12:16:54.452Z,380.00
2018-12-21T12:17:54.427Z,372.00
2018-12-21T12:18:54.412Z,376.00
2018-12-21T12:19:54.402Z,348.00
2018-12-21T12:20:54.419Z,328.00
2018-12-21T12:21:54.435Z,272.00
2018-12-21T12:22:54.380Z,292.00
2018-12-21T12:23:54.423Z,316.00
2018-12-21T12:24:55.429Z,320.00
2018-12-21T12:25:54.384Z,312.00
2018-12-21T12:26:54.398Z,296.00
2018-12-21T12:27:54.346Z,328.00
2018-12-21T12:28:54.399Z,280.00
2018-12-21T12:29:54.334Z,284.00
2018-12-21T12:30:54.361Z,308.00
2018-12-21T12:31:54.329Z,276.00
2018-12-21T12:32:54.327Z,272.00
2018-12-21T12:33:54.316Z,252.00
2018-12-21T12:34:54.321Z,272.00
2018-12-21T12:35:54.392Z,288.00
2018-12-21T12:36:54.294Z,304.00
2018-12-21T12:37:54.284Z,336.00
2018-12-21T12:38:54.273Z,336.00
2018-12-21T12:39:54.290Z,336.00
2018-12-21T12:40:54.272Z,348.00
2018-12-21T12:41:54.277Z,288.00
2018-12-21T12:42:54.252Z,268.00
2018-12-21T12:43:54.272Z,264.00
2018-12-21T12:44:54.253Z,268.00
2018-12-21T12:45:54.247Z,264.00
2018-12-21T12:46:54.248Z,244.00
2018-12-21T12:47:54.260Z,272.00
2018-12-21T12:48:54.224Z,240.00
2018-12-21T12:50:03.879Z,268.00
2018-12-21T12:51:48.643Z,224.00
2018-12-21T12:52:48.623Z,216.00
2018-12-21T12:53:48.626Z,208.00
2018-12-21T12:54:48.613Z,192.00
2018-12-21T12:55:48.593Z,188.00
2018-12-21T12:56:48.601Z,192.00
2018-12-21T12:57:48.590Z,192.00
2018-12-21T12:58:48.614Z,220.00
2018-12-21T12:59:48.598Z,232.00
2018-12-21T13:00:48.580Z,268.00
2018-12-21T13:01:48.562Z,268.00
2018-12-21T13:02:48.580Z,284.00
2018-12-21T13:03:48.548Z,220.00
2018-12-21T13:04:48.555Z,220.00
2018-12-21T13:05:48.552Z,212.00
2018-12-21T13:06:48.527Z,260.00
2018-12-21T13:07:48.586Z,252.00
2018-12-21T13:08:48.527Z,240.00
2018-12-21T13:09:48.537Z,236.00
2018-12-21T13:10:48.507Z,228.00
2018-12-21T13:11:48.510Z,248.00
2018-12-21T13:12:48.493Z,248.00
2018-12-21T13:13:48.510Z,260.00
2018-12-21T13:14:48.483Z,236.00
2018-12-21T13:15:48.509Z,240.00
2018-12-21T13:16:48.474Z,232.00
2018-12-21T13:17:48.472Z,232.00
2018-12-21T13:18:48.463Z,240.00
2018-12-21T13:19:48.456Z,240.00
2018-12-21T13:20:48.463Z,232.00
2018-12-21T13:21:48.439Z,240.00
2018-12-21T13:22:48.437Z,204.00
2018-12-21T13:23:48.432Z,200.00
2018-12-21T13:24:48.420Z,188.00
2018-12-21T13:25:48.439Z,168.00
2018-12-21T13:26:48.410Z,160.00
2018-12-21T13:27:48.407Z,148.00
2018-12-21T13:28:48.404Z,132.00
2018-12-21T13:29:48.394Z,136.00
2018-12-21T13:30:48.402Z,136.00
2018-12-21T13:31:48.381Z,136.00
2018-12-21T13:32:48.383Z,144.00
2018-12-21T13:33:48.391Z,148.00
2018-12-21T13:34:48.361Z,140.00
2018-12-21T13:35:48.395Z,136.00